Time;durP1;ratioP1;P1;durP2;ratioP2;P2;SDS_P1;SDS_P2;PMS_P1;PMS_P2;Temp;Humidity;BMP_temperature;BMP_pressure;BME280_temperature;BME280_humidity;BME280_pressure;Samples;Min_cycle;Max_cycle;Signal;HPM_P1;HPM_P2
2022/12/05 00:01:24;;;;;;;35.23;14.93;;;3.60;89.90;;;;;;5009372;28;20436;-74
2022/12/05 00:03:53;;;;;;;33.37;15.03;;;3.60;89.60;;;;;;5005779;28;20433;-76
2022/12/05 00:06:19;;;;;;;37.77;14.10;;;3.50;89.30;;;;;;5004983;28;20922;-74
2022/12/05 00:08:46;;;;;;;35.27;13.30;;;3.50;89.70;;;;;;5006340;28;20615;-75
2022/12/05 00:11:18;;;;;;;31.03;15.13;;;3.50;89.60;;;;;;5005636;28;20535;-74
2022/12/05 00:13:44;;;;;;;35.33;13.40;;;3.40;89.70;;;;;;5004727;28;21044;-74
2022/12/05 00:16:12;;;;;;;32.73;13.07;;;3.40;89.90;;;;;;5008295;28;20436;-75
2022/12/05 00:18:38;;;;;;;35.60;14.30;;;3.50;89.90;;;;;;4998714;28;20496;-75
2022/12/05 00:21:05;;;;;;;35.63;13.00;;;3.50;89.70;;;;;;5008049;28;20436;-74
2022/12/05 00:23:31;;;;;;;34.90;14.97;;;3.50;89.60;;;;;;4996772;28;20441;-75
2022/12/05 00:26:00;;;;;;;39.63;15.70;;;3.50;89.60;;;;;;5014472;28;20440;-75
2022/12/05 00:28:25;;;;;;;33.30;14.03;;;3.50;89.60;;;;;;5013003;28;20213;-75
2022/12/05 00:30:51;;;;;;;32.03;14.33;;;3.50;89.60;;;;;;5014386;28;20421;-76
2022/12/05 00:33:16;;;;;;;39.00;15.47;;;3.50;89.70;;;;;;5013858;28;20186;-77
2022/12/05 00:35:42;;;;;;;34.53;13.70;;;3.60;89.90;;;;;;5011494;28;20221;-73
2022/12/05 00:38:07;;;;;;;45.70;14.80;;;3.60;89.60;;;;;;5004257;28;20206;-75
2022/12/05 00:40:35;;;;;;;34.97;13.50;;;3.50;89.30;;;;;;5010685;28;20202;-74
2022/12/05 00:43:00;;;;;;;26.07;12.47;;;3.50;89.30;;;;;;5006488;28;20208;-74
2022/12/05 00:45:26;;;;;;;33.23;12.83;;;3.40;89.60;;;;;;5012328;28;20413;-75
2022/12/05 00:47:51;;;;;;;34.67;13.10;;;3.40;89.70;;;;;;4998692;28;20234;-74
2022/12/05 00:50:17;;;;;;;26.47;12.83;;;3.40;89.70;;;;;;5008642;28;20197;-74
2022/12/05 00:52:42;;;;;;;34.50;14.07;;;3.40;89.70;;;;;;5013934;28;20193;-75
2022/12/05 00:55:08;;;;;;;30.73;12.07;;;3.40;89.90;;;;;;5014109;28;20214;-76
2022/12/05 00:57:34;;;;;;;26.93;12.00;;;3.40;89.70;;;;;;5019528;28;20217;-75
2022/12/05 00:59:59;;;;;;;31.27;11.87;;;3.40;89.70;;;;;;5015387;28;20221;-74
2022/12/05 01:02:25;;;;;;;28.83;12.43;;;3.40;89.90;;;;;;5007623;28;20186;-75
2022/12/05 01:04:50;;;;;;;29.60;12.43;;;3.40;89.90;;;;;;5006526;28;20174;-75
2022/12/05 01:07:16;;;;;;;34.57;13.93;;;3.40;89.90;;;;;;5006596;28;20224;-76
2022/12/05 01:09:42;;;;;;;31.63;12.50;;;3.40;90.00;;;;;;4999946;28;20189;-73
2022/12/05 01:12:07;;;;;;;31.60;11.93;;;3.30;89.70;;;;;;5000588;28;20672;-74
2022/12/05 01:14:33;;;;;;;32.67;12.40;;;3.40;90.00;;;;;;5004501;28;20590;-75
2022/12/05 01:16:59;;;;;;;30.07;13.30;;;3.40;90.00;;;;;;5005280;28;20274;-75
2022/12/05 01:19:30;;;;;;;24.93;11.57;;;3.40;90.00;;;;;;5005612;28;20926;-74
2022/12/05 01:21:56;;;;;;;29.23;12.83;;;3.50;89.90;;;;;;4999707;28;20186;-75
2022/12/05 01:24:23;;;;;;;34.17;13.57;;;3.50;89.90;;;;;;5010963;28;20775;-74
2022/12/05 01:26:49;;;;;;;29.67;13.10;;;3.50;89.60;;;;;;5011058;28;20830;-75
2022/12/05 01:29:16;;;;;;;26.30;11.97;;;3.50;89.60;;;;;;5010026;28;20465;-75
2022/12/05 01:31:42;;;;;;;28.73;12.40;;;3.60;89.60;;;;;;5010095;28;20937;-74
2022/12/05 01:34:13;;;;;;;27.53;11.30;;;3.60;89.60;;;;;;5009363;28;20448;-73
2022/12/05 01:36:39;;;;;;;27.87;11.93;;;3.60;89.50;;;;;;5010294;28;20544;-74
2022/12/05 01:39:09;;;;;;;29.63;11.90;;;3.60;89.50;;;;;;5007820;28;20461;-74
2022/12/05 01:41:41;;;;;;;28.10;11.13;;;3.60;89.50;;;;;;5008094;28;20520;-74
2022/12/05 01:44:26;;;;;;;23.13;11.47;;;3.70;89.50;;;;;;5009442;28;20433;-73
2022/12/05 01:46:54;;;;;;;25.87;11.43;;;3.70;89.30;;;;;;5009979;28;20435;-74
2022/12/05 01:49:22;;;;;;;24.40;10.80;;;3.80;89.60;;;;;;5010912;28;20557;-74
2022/12/05 01:51:51;;;;;;;26.13;10.33;;;3.80;89.20;;;;;;5019100;28;20448;-74
2022/12/05 01:54:18;;;;;;;29.23;12.60;;;3.80;89.00;;;;;;5014893;28;20523;-74
2022/12/05 01:56:52;;;;;;;33.73;11.20;;;3.90;89.20;;;;;;5014824;28;20421;-75
2022/12/05 01:59:19;;;;;;;28.90;10.93;;;3.90;88.90;;;;;;5010293;28;20469;-75
2022/12/05 02:01:45;;;;;;;23.50;10.27;;;3.80;88.60;;;;;;5015062;28;20417;-74
2022/12/05 02:04:11;;;;;;;23.73;11.70;;;3.90;88.90;;;;;;5028215;28;20425;-74
2022/12/05 02:06:37;;;;;;;22.13;10.10;;;4.00;88.30;;;;;;5029142;28;20501;-73
2022/12/05 02:09:03;;;;;;;26.13;11.80;;;4.00;88.00;;;;;;5028158;28;20213;-74
2022/12/05 02:11:32;;;;;;;21.50;9.23;;;3.90;87.80;;;;;;5030215;28;20440;-73
2022/12/05 02:14:08;;;;;;;21.00;9.37;;;3.80;88.10;;;;;;5031758;28;20515;-73
2022/12/05 02:16:43;;;;;;;27.17;11.43;;;3.90;88.40;;;;;;5018705;28;20523;-75
2022/12/05 02:19:08;;;;;;;28.47;11.10;;;3.90;88.10;;;;;;5007891;28;20467;-74
2022/12/05 02:21:44;;;;;;;25.70;10.60;;;3.80;88.30;;;;;;5012768;28;20773;-75
2022/12/05 02:24:19;;;;;;;28.23;10.80;;;3.90;88.40;;;;;;5013147;28;20186;-75
2022/12/05 02:26:58;;;;;;;23.67;9.60;;;3.80;88.60;;;;;;5013016;28;20420;-74
2022/12/05 02:29:51;;;;;;;25.77;9.43;;;3.80;88.90;;;;;;5009290;28;20459;-74
2022/12/05 02:32:25;;;;;;;24.47;9.97;;;3.80;89.00;;;;;;5010927;28;20436;-76
2022/12/05 02:35:18;;;;;;;26.63;10.93;;;3.70;89.20;;;;;;5012051;28;20457;-75
2022/12/05 02:38:00;;;;;;;29.20;10.97;;;3.60;89.50;;;;;;5010382;28;20463;-75
2022/12/05 02:40:40;;;;;;;25.00;10.40;;;3.60;89.70;;;;;;5014383;28;20425;-74
2022/12/05 02:43:29;;;;;;;30.13;12.07;;;3.60;90.10;;;;;;5013431;28;21005;-76
2022/12/05 02:45:58;;;;;;;28.67;12.00;;;3.70;90.30;;;;;;5011399;28;20885;-75
2022/12/05 02:48:27;;;;;;;29.37;12.40;;;3.70;90.20;;;;;;5009780;28;20481;-76
2022/12/05 02:50:55;;;;;;;32.07;12.73;;;3.70;90.30;;;;;;5012587;28;20417;-75
2022/12/05 02:53:24;;;;;;;32.07;13.20;;;3.50;90.40;;;;;;5016249;28;20455;-75
2022/12/05 02:55:50;;;;;;;33.60;13.00;;;3.50;90.90;;;;;;5005009;28;20464;-74
2022/12/05 02:58:22;;;;;;;32.83;12.93;;;3.50;91.10;;;;;;5004019;28;20548;-75
2022/12/05 03:00:52;;;;;;;32.93;11.80;;;3.50;91.30;;;;;;4997839;28;20480;-75
2022/12/05 03:03:20;;;;;;;26.50;11.97;;;3.50;91.40;;;;;;5007281;28;20421;-74
2022/12/05 03:05:58;;;;;;;29.17;12.00;;;3.50;91.40;;;;;;4997060;28;20499;-74
2022/12/05 03:08:28;;;;;;;30.80;12.37;;;3.60;91.30;;;;;;5002401;28;20461;-74
2022/12/05 03:10:55;;;;;;;33.70;11.67;;;3.60;91.30;;;;;;5009403;28;20504;-75
2022/12/05 03:13:30;;;;;;;34.13;11.87;;;3.70;91.30;;;;;;5001737;28;20811;-74
2022/12/05 03:16:01;;;;;;;28.40;11.07;;;3.70;91.20;;;;;;5008885;28;20776;-75
2022/12/05 03:18:36;;;;;;;23.20;11.27;;;3.80;91.10;;;;;;5006941;28;20453;-74
2022/12/05 03:21:12;;;;;;;31.37;11.87;;;3.80;90.90;;;;;;5015188;28;20424;-75
2022/12/05 03:23:48;;;;;;;26.27;11.20;;;3.80;90.80;;;;;;5013283;28;20448;-74
2022/12/05 03:26:14;;;;;;;34.10;12.80;;;3.80;90.80;;;;;;5009610;28;20421;-74
2022/12/05 03:28:56;;;;;;;28.80;11.60;;;3.70;90.80;;;;;;5009252;28;20452;-74
2022/12/05 03:31:36;;;;;;;28.10;11.90;;;3.70;91.00;;;;;;5000524;28;20274;-74
2022/12/05 03:34:05;;;;;;;36.90;12.50;;;3.70;91.10;;;;;;5003822;28;20978;-75
2022/12/05 03:36:43;;;;;;;32.90;13.60;;;3.70;91.30;;;;;;5001026;28;20461;-74
2022/12/05 03:39:26;;;;;;;35.23;13.17;;;3.80;91.30;;;;;;5005528;28;20464;-76
2022/12/05 03:42:23;;;;;;;35.50;13.93;;;3.70;91.20;;;;;;5004871;28;20421;-75
2022/12/05 03:44:50;;;;;;;36.13;13.20;;;3.80;91.40;;;;;;5003378;28;20451;-74
2022/12/05 03:47:31;;;;;;;33.93;12.80;;;4.00;91.30;;;;;;5006423;28;20433;-75
2022/12/05 03:50:05;;;;;;;27.43;12.07;;;3.90;91.00;;;;;;5004197;28;20951;-74
2022/12/05 03:52:41;;;;;;;33.17;13.03;;;4.00;91.00;;;;;;5006002;28;20432;-73
2022/12/05 03:55:09;;;;;;;26.30;11.67;;;4.00;91.00;;;;;;5004943;28;20460;-74
2022/12/05 03:57:42;;;;;;;34.57;12.13;;;3.90;90.90;;;;;;4999429;28;20457;-76
2022/12/05 04:00:21;;;;;;;28.30;11.43;;;4.00;91.00;;;;;;5002523;28;20421;-74
2022/12/05 04:02:48;;;;;;;26.73;11.40;;;4.00;90.80;;;;;;5001638;28;21171;-74
2022/12/05 04:05:25;;;;;;;31.53;12.27;;;4.00;90.70;;;;;;5000710;28;20453;-74
2022/12/05 04:08:14;;;;;;;32.30;12.60;;;4.00;90.70;;;;;;5001105;28;20464;-75
2022/12/05 04:10:48;;;;;;;31.63;12.63;;;4.10;90.70;;;;;;5001487;28;20421;-74
2022/12/05 04:13:29;;;;;;;27.87;11.93;;;4.00;90.60;;;;;;5000240;28;20425;-74
2022/12/05 04:18:54;;;;;;;40.80;13.77;;;4.10;90.80;;;;;;5000841;28;20543;-75
2022/12/05 04:21:38;;;;;;;34.43;13.40;;;4.10;90.80;;;;;;5003610;28;20631;-74
2022/12/05 04:27:37;;;;;;;28.33;11.60;;;4.30;90.80;;;;;;5003925;28;20420;-72
2022/12/05 04:30:09;;;;;;;37.27;11.97;;;4.30;90.60;;;;;;4975993;28;20448;-73
2022/12/05 04:32:42;;;;;;;27.57;12.00;;;4.30;90.30;;;;;;5009333;28;20422;-74
2022/12/05 04:35:19;;;;;;;36.17;12.23;;;4.30;90.10;;;;;;5013096;28;20495;-75
2022/12/05 04:37:49;;;;;;;25.57;11.47;;;4.30;90.10;;;;;;5009522;28;20599;-73
2022/12/05 04:40:27;;;;;;;29.20;12.83;;;4.30;90.00;;;;;;5014068;28;20559;-74
2022/12/05 04:42:55;;;;;;;26.20;12.03;;;4.30;90.10;;;;;;5011014;28;20446;-75
2022/12/05 04:45:24;;;;;;;25.20;11.83;;;4.40;90.10;;;;;;5004924;28;20790;-75
2022/12/05 04:47:56;;;;;;;26.47;11.77;;;4.40;90.00;;;;;;4999382;28;20471;-75
2022/12/05 04:50:23;;;;;;;38.70;13.40;;;4.30;89.90;;;;;;5007516;28;20428;-76
2022/12/05 04:52:52;;;;;;;24.23;11.80;;;4.30;90.00;;;;;;5010698;28;20420;-76
2022/12/05 04:55:24;;;;;;;30.60;12.50;;;4.20;89.90;;;;;;5010431;28;20457;-77
2022/12/05 04:57:59;;;;;;;32.67;12.37;;;4.10;90.10;;;;;;5006223;28;20464;-76
2022/12/05 05:00:27;;;;;;;23.23;11.70;;;4.20;90.40;;;;;;5005340;28;20415;-76
2022/12/05 05:02:56;;;;;;;34.47;12.40;;;4.30;90.50;;;;;;5007252;28;20990;-76
2022/12/05 05:05:22;;;;;;;25.70;11.40;;;4.30;90.40;;;;;;5011796;28;20923;-76
2022/12/05 05:07:51;;;;;;;32.10;13.43;;;4.40;90.20;;;;;;5008272;28;20570;-77
2022/12/05 05:10:32;;;;;;;26.60;10.47;;;4.40;90.00;;;;;;5011940;28;20186;-77
2022/12/05 05:12:58;;;;;;;31.73;12.30;;;4.40;89.70;;;;;;5012688;28;20432;-75
2022/12/05 05:15:23;;;;;;;22.00;10.70;;;4.30;89.60;;;;;;5013203;28;20490;-77
2022/12/05 05:17:49;;;;;;;30.97;12.10;;;4.30;89.90;;;;;;5009128;28;21174;-75
2022/12/05 05:20:23;;;;;;;33.20;14.10;;;4.30;90.00;;;;;;5009599;28;20261;-76
2022/12/05 05:22:50;;;;;;;34.07;13.10;;;4.20;90.10;;;;;;5010684;28;20177;-76
2022/12/05 05:25:16;;;;;;;31.27;12.50;;;4.10;90.20;;;;;;5012467;28;21044;-75
2022/12/05 05:27:42;;;;;;;29.83;12.80;;;4.20;90.50;;;;;;5010008;28;21378;-74
2022/12/05 05:30:08;;;;;;;33.90;12.90;;;4.30;90.50;;;;;;5008918;28;20440;-76
2022/12/05 05:32:34;;;;;;;35.43;12.33;;;4.40;90.50;;;;;;5012228;28;20182;-76
2022/12/05 05:35:00;;;;;;;31.00;14.00;;;4.30;90.20;;;;;;5011876;28;20460;-75
2022/12/05 05:37:25;;;;;;;32.17;13.03;;;4.20;90.30;;;;;;5008914;28;20463;-76
2022/12/05 05:39:51;;;;;;;33.50;13.80;;;4.20;90.30;;;;;;5008553;28;20194;-74
2022/12/05 05:42:16;;;;;;;28.33;12.27;;;4.10;90.30;;;;;;5020315;28;20186;-76
2022/12/05 05:44:42;;;;;;;33.73;13.30;;;4.10;90.40;;;;;;5020081;28;20193;-74
2022/12/05 05:47:07;;;;;;;33.33;13.90;;;4.10;90.50;;;;;;5020048;28;20209;-75
2022/12/05 05:49:33;;;;;;;29.47;12.93;;;4.00;90.60;;;;;;5017262;28;20538;-75
2022/12/05 05:51:59;;;;;;;28.40;12.33;;;4.00;90.80;;;;;;5021230;28;20231;-75
2022/12/05 05:54:24;;;;;;;29.03;12.53;;;4.00;91.00;;;;;;5020241;28;20217;-73
2022/12/05 05:56:50;;;;;;;28.20;12.83;;;4.10;91.00;;;;;;5012982;28;20181;-76
2022/12/05 05:59:15;;;;;;;29.80;12.43;;;4.10;90.80;;;;;;5014395;28;20684;-76
2022/12/05 06:01:41;;;;;;;32.80;12.23;;;4.10;90.80;;;;;;5018757;28;20285;-76
2022/12/05 06:04:06;;;;;;;32.10;13.70;;;4.10;90.70;;;;;;5022569;28;20197;-74
2022/12/05 06:06:32;;;;;;;33.53;12.63;;;4.10;90.80;;;;;;5017248;28;20201;-75
2022/12/05 06:08:58;;;;;;;29.93;12.00;;;4.10;90.70;;;;;;5018357;28;20213;-76
2022/12/05 06:11:25;;;;;;;30.00;12.57;;;4.20;90.80;;;;;;5020197;28;20214;-76
2022/12/05 06:13:51;;;;;;;28.13;11.10;;;4.30;90.70;;;;;;5011571;28;20645;-75
2022/12/05 06:16:18;;;;;;;29.67;12.13;;;4.40;90.50;;;;;;5005838;28;20426;-77
2022/12/05 06:18:44;;;;;;;29.07;11.23;;;4.40;90.10;;;;;;5006451;28;20460;-77
2022/12/05 06:21:10;;;;;;;27.97;11.47;;;4.40;89.90;;;;;;5006700;28;20465;-75
2022/12/05 06:23:37;;;;;;;27.77;11.47;;;4.40;89.70;;;;;;5006557;28;20178;-76
2022/12/05 06:26:04;;;;;;;28.33;11.50;;;4.40;89.70;;;;;;5001168;28;20425;-76
2022/12/05 06:28:30;;;;;;;23.20;11.27;;;4.50;89.90;;;;;;5009040;28;20467;-77
2022/12/05 06:30:55;;;;;;;26.77;10.97;;;4.50;89.70;;;;;;5007166;28;20428;-75
2022/12/05 06:33:21;;;;;;;29.80;11.03;;;4.50;89.60;;;;;;5007361;28;20429;-76
2022/12/05 06:35:47;;;;;;;23.53;11.70;;;4.50;89.70;;;;;;5006213;28;20321;-77
2022/12/05 06:38:13;;;;;;;21.10;10.37;;;4.40;89.50;;;;;;5006910;28;20201;-77
2022/12/05 06:40:43;;;;;;;23.40;10.67;;;4.40;89.70;;;;;;5009694;28;20332;-76
2022/12/05 06:43:09;;;;;;;28.60;11.67;;;4.40;89.90;;;;;;5007194;28;20422;-77
2022/12/05 06:45:38;;;;;;;27.00;12.07;;;4.40;89.90;;;;;;5003318;28;20413;-77
2022/12/05 06:48:04;;;;;;;31.83;12.63;;;4.40;90.00;;;;;;5004352;28;21080;-76
2022/12/05 06:50:29;;;;;;;29.40;10.83;;;4.30;90.10;;;;;;5009501;28;20468;-75
2022/12/05 06:52:55;;;;;;;23.50;11.30;;;4.40;90.20;;;;;;5009304;28;20432;-75
2022/12/05 06:55:21;;;;;;;24.00;11.10;;;4.40;90.20;;;;;;5012157;28;20311;-76
2022/12/05 06:57:46;;;;;;;22.50;11.00;;;4.50;90.10;;;;;;5014583;28;20209;-74
2022/12/05 07:02:57;;;;;;;30.17;11.43;;;4.50;89.60;;;;;;5028212;28;20188;-74
2022/12/05 07:05:22;;;;;;;31.17;10.80;;;4.60;89.50;;;;;;5028081;28;20429;-74
2022/12/05 07:07:48;;;;;;;25.03;10.93;;;4.60;89.50;;;;;;5024510;28;20407;-75
2022/12/05 07:10:13;;;;;;;24.80;11.27;;;4.60;89.30;;;;;;5029718;28;20193;-74
2022/12/05 07:12:39;;;;;;;22.30;10.83;;;4.60;89.20;;;;;;5025016;28;20187;-76
2022/12/05 07:15:05;;;;;;;25.90;12.33;;;4.60;89.00;;;;;;5023259;28;20210;-74
2022/12/05 07:17:35;;;;;;;21.40;10.10;;;4.40;88.90;;;;;;5022141;28;20190;-75
2022/12/05 07:20:02;;;;;;;29.83;10.80;;;4.50;89.30;;;;;;5021231;28;20424;-76
2022/12/05 07:22:27;;;;;;;24.77;10.97;;;4.50;89.60;;;;;;5014996;28;21017;-75
2022/12/05 07:24:53;;;;;;;30.13;10.80;;;4.50;89.50;;;;;;5011732;28;20513;-75
2022/12/05 07:27:18;;;;;;;23.63;11.30;;;4.70;89.50;;;;;;5009848;28;20539;-73
2022/12/05 07:29:44;;;;;;;25.00;11.53;;;4.60;89.30;;;;;;5006989;28;20217;-75
2022/12/05 07:32:09;;;;;;;23.63;11.03;;;4.80;89.50;;;;;;5009053;28;20280;-74
2022/12/05 07:34:37;;;;;;;28.87;11.20;;;4.80;89.30;;;;;;5009856;28;20209;-75
2022/12/05 07:37:03;;;;;;;26.33;11.47;;;4.90;89.20;;;;;;5007238;28;20182;-75
2022/12/05 07:39:28;;;;;;;20.13;9.70;;;4.90;88.90;;;;;;5005049;28;20971;-77
2022/12/05 07:41:54;;;;;;;25.00;10.63;;;5.00;88.90;;;;;;5008765;28;20614;-76
2022/12/05 07:44:19;;;;;;;25.67;11.70;;;5.00;88.30;;;;;;5008252;28;20193;-75
2022/12/05 07:46:45;;;;;;;22.43;9.93;;;4.80;87.70;;;;;;5002729;28;20236;-76
2022/12/05 07:49:10;;;;;;;19.97;10.43;;;4.70;88.30;;;;;;5008774;28;20236;-76
2022/12/05 07:51:37;;;;;;;22.57;10.60;;;4.80;88.70;;;;;;5011047;28;20178;-74
2022/12/05 07:54:03;;;;;;;21.73;10.33;;;4.80;88.90;;;;;;5011019;28;20202;-76
2022/12/05 07:56:28;;;;;;;26.57;12.40;;;4.90;88.90;;;;;;5010626;28;20431;-77
2022/12/05 07:58:54;;;;;;;26.50;10.90;;;4.90;88.60;;;;;;5007191;28;20228;-75
2022/12/05 08:01:22;;;;;;;20.00;9.70;;;5.00;88.70;;;;;;5010949;28;20266;-74
2022/12/05 08:03:48;;;;;;;23.70;10.10;;;5.20;88.60;;;;;;5006543;28;20182;-76
2022/12/05 08:06:17;;;;;;;18.67;10.00;;;5.40;88.00;;;;;;5005879;28;20479;-74
2022/12/05 08:08:43;;;;;;;18.87;9.50;;;5.40;87.40;;;;;;5006516;28;20497;-75
2022/12/05 08:11:15;;;;;;;18.50;9.90;;;5.60;87.10;;;;;;5003437;28;20512;-74
2022/12/05 08:13:42;;;;;;;22.13;10.33;;;5.70;86.50;;;;;;5010731;28;20516;-73
2022/12/05 08:16:11;;;;;;;28.33;11.97;;;5.60;85.90;;;;;;5009900;28;20479;-73
2022/12/05 08:18:37;;;;;;;21.93;10.87;;;5.50;86.20;;;;;;5005619;28;20471;-74
2022/12/05 08:21:15;;;;;;;21.33;10.07;;;5.50;86.80;;;;;;5013877;28;20510;-74
2022/12/05 08:23:42;;;;;;;22.30;11.77;;;5.70;87.00;;;;;;5019407;28;20421;-74
2022/12/05 08:26:25;;;;;;;17.23;9.43;;;5.80;86.60;;;;;;5016933;28;20477;-73
2022/12/05 08:28:56;;;;;;;19.90;10.57;;;5.70;86.60;;;;;;5006095;28;20491;-74
2022/12/05 08:31:23;;;;;;;21.80;9.60;;;5.80;86.50;;;;;;5006864;28;20770;-73
2022/12/05 08:33:50;;;;;;;19.50;9.67;;;5.60;86.00;;;;;;5001654;28;20429;-74
2022/12/05 08:36:17;;;;;;;28.53;12.80;;;5.70;86.60;;;;;;5012395;28;20424;-74
2022/12/05 08:38:43;;;;;;;18.63;9.07;;;5.80;86.20;;;;;;5004932;28;20549;-74
2022/12/05 08:41:13;;;;;;;21.47;8.77;;;5.80;85.90;;;;;;5014604;28;21045;-74
2022/12/05 08:43:39;;;;;;;21.90;9.80;;;5.80;85.70;;;;;;5004834;28;20437;-73
2022/12/05 08:46:05;;;;;;;21.83;8.97;;;5.90;85.50;;;;;;5009463;28;20435;-74
2022/12/05 08:48:32;;;;;;;19.50;10.10;;;5.90;84.90;;;;;;5008167;28;20209;-74
2022/12/05 08:50:58;;;;;;;22.40;9.50;;;5.90;84.70;;;;;;5010102;28;20769;-73
2022/12/05 08:53:24;;;;;;;19.50;10.63;;;5.70;85.00;;;;;;5012648;28;20421;-74
2022/12/05 08:55:50;;;;;;;17.63;9.60;;;5.70;85.50;;;;;;5013439;28;20461;-73
2022/12/05 08:58:16;;;;;;;20.00;9.40;;;5.80;86.00;;;;;;5009710;28;20459;-74
2022/12/05 09:00:42;;;;;;;18.47;8.50;;;5.80;85.30;;;;;;5013261;28;20248;-73
2022/12/05 09:03:10;;;;;;;19.07;9.60;;;5.80;85.20;;;;;;5012161;28;20196;-74
2022/12/05 09:05:36;;;;;;;21.30;10.23;;;5.70;85.50;;;;;;5018527;28;20417;-73
2022/12/05 09:08:02;;;;;;;22.00;9.90;;;5.70;85.90;;;;;;5018964;28;20499;-74
2022/12/05 09:10:27;;;;;;;23.97;10.50;;;5.80;86.00;;;;;;5017746;28;20186;-73
2022/12/05 09:12:53;;;;;;;22.10;9.23;;;5.80;85.90;;;;;;5019960;28;20649;-73
2022/12/05 09:15:18;;;;;;;21.00;10.20;;;5.80;85.70;;;;;;5020171;28;20206;-73
2022/12/05 09:17:44;;;;;;;22.83;9.80;;;5.90;85.50;;;;;;5006793;28;20630;-73
2022/12/05 09:20:12;;;;;;;19.10;9.60;;;5.90;85.20;;;;;;5016479;28;20788;-73
2022/12/05 09:22:39;;;;;;;19.90;8.90;;;5.90;85.20;;;;;;5008692;28;20556;-74
2022/12/05 09:25:05;;;;;;;21.27;9.77;;;6.00;85.00;;;;;;5012915;28;20996;-74
2022/12/05 09:27:30;;;;;;;22.87;10.43;;;6.00;84.60;;;;;;5010560;28;20416;-73
2022/12/05 09:29:56;;;;;;;20.10;9.67;;;5.90;85.00;;;;;;5004067;28;20962;-75
2022/12/05 09:32:21;;;;;;;20.60;8.97;;;5.90;85.50;;;;;;5005440;28;20324;-75
2022/12/05 09:34:47;;;;;;;13.53;7.90;;;6.00;85.90;;;;;;5006834;28;20299;-77
2022/12/05 09:37:12;;;;;;;16.50;8.93;;;6.10;85.90;;;;;;5005729;28;20185;-76
2022/12/05 09:39:38;;;;;;;20.03;9.47;;;6.30;85.50;;;;;;5006464;28;20592;-75
2022/12/05 09:42:31;;;;;;;16.57;8.50;;;6.30;85.20;;;;;;5011959;28;20240;-74
2022/12/05 09:45:09;;;;;;;18.43;7.93;;;6.30;84.90;;;;;;5000466;28;20198;-76
2022/12/05 09:48:03;;;;;;;11.53;7.37;;;6.50;84.90;;;;;;5005940;28;20427;-75
2022/12/05 09:50:53;;;;;;;17.50;7.83;;;6.50;83.80;;;;;;5013620;28;20447;-75
2022/12/05 09:53:31;;;;;;;14.07;8.30;;;6.60;83.00;;;;;;5009513;28;20472;-76
2022/12/05 09:56:04;;;;;;;14.03;7.50;;;6.60;82.70;;;;;;5011166;28;20464;-76
2022/12/05 09:58:51;;;;;;;16.07;8.40;;;6.50;83.00;;;;;;4997694;28;20555;-76
2022/12/05 10:01:41;;;;;;;13.20;7.10;;;6.50;83.10;;;;;;5010067;28;20487;-74
2022/12/05 10:04:28;;;;;;;16.70;8.20;;;6.60;83.40;;;;;;5012765;28;20532;-74
2022/12/05 10:07:09;;;;;;;16.57;8.13;;;6.60;83.30;;;;;;5009563;28;20432;-74
2022/12/05 10:09:53;;;;;;;13.47;7.57;;;6.60;83.40;;;;;;5009354;28;20452;-76
2022/12/05 10:12:39;;;;;;;14.83;7.73;;;6.70;83.10;;;;;;5010829;28;20479;-76
2022/12/05 10:15:13;;;;;;;17.83;7.50;;;6.80;82.80;;;;;;5011984;28;20467;-75
2022/12/05 10:18:02;;;;;;;19.87;7.70;;;6.80;82.80;;;;;;5003309;28;20413;-75
2022/12/05 10:20:38;;;;;;;17.10;9.00;;;6.80;82.80;;;;;;5008629;28;20504;-76
2022/12/05 10:23:13;;;;;;;14.53;7.73;;;6.90;82.80;;;;;;5007849;28;20503;-74
2022/12/05 10:25:40;;;;;;;13.83;7.33;;;6.90;82.10;;;;;;5002574;28;20425;-76
2022/12/05 10:28:17;;;;;;;12.23;6.30;;;6.90;82.20;;;;;;5001999;28;20461;-75
2022/12/05 10:30:46;;;;;;;15.70;7.80;;;6.90;82.40;;;;;;5007581;28;20448;-76
2022/12/05 10:33:20;;;;;;;16.10;7.53;;;6.90;82.70;;;;;;5011559;28;20508;-77
2022/12/05 10:35:45;;;;;;;14.63;7.53;;;6.80;83.30;;;;;;5005250;28;20552;-77
2022/12/05 10:38:18;;;;;;;14.63;8.00;;;6.90;83.60;;;;;;5006432;28;20540;-76
2022/12/05 10:40:49;;;;;;;12.13;6.50;;;7.10;83.30;;;;;;5012629;28;20218;-75
2022/12/05 10:43:28;;;;;;;12.20;6.43;;;7.10;82.40;;;;;;5009279;28;20794;-76
2022/12/05 10:45:54;;;;;;;17.93;7.40;;;7.40;81.70;;;;;;5006345;28;20797;-77
2022/12/05 10:48:21;;;;;;;15.73;8.10;;;7.40;80.60;;;;;;5005798;28;20862;-75
2022/12/05 10:50:50;;;;;;;13.10;6.80;;;7.20;81.40;;;;;;5010789;28;20420;-77
2022/12/05 10:53:27;;;;;;;15.90;7.90;;;7.40;81.90;;;;;;5009841;28;20509;-77
2022/12/05 10:55:54;;;;;;;14.00;7.47;;;7.50;80.20;;;;;;5010192;28;20935;-75
2022/12/05 10:58:29;;;;;;;6.83;5.00;;;7.60;79.60;;;;;;5003582;28;20516;-76
2022/12/05 11:01:07;;;;;;;14.87;6.17;;;7.40;78.90;;;;;;5008529;28;20785;-76
2022/12/05 11:03:38;;;;;;;12.67;6.50;;;7.40;79.60;;;;;;5005922;28;20423;-76
2022/12/05 11:06:17;;;;;;;11.00;5.33;;;7.60;79.60;;;;;;5004893;28;20923;-73
2022/12/05 11:08:54;;;;;;;7.33;4.93;;;7.80;78.40;;;;;;4996443;28;20484;-76
2022/12/05 11:11:28;;;;;;;8.07;5.23;;;7.80;76.70;;;;;;5010239;28;20506;-76
2022/12/05 11:14:00;;;;;;;13.37;5.60;;;7.70;77.10;;;;;;5006876;28;20775;-76
2022/12/05 11:16:37;;;;;;;8.03;4.63;;;7.80;76.80;;;;;;5006240;28;20428;-77
2022/12/05 11:19:21;;;;;;;8.93;4.90;;;7.60;76.70;;;;;;5003637;28;20553;-76
2022/12/05 11:21:48;;;;;;;12.73;5.80;;;7.70;77.10;;;;;;5006985;28;20422;-76
2022/12/05 11:24:32;;;;;;;11.50;4.73;;;7.60;77.00;;;;;;5016015;28;20451;-75
2022/12/05 11:27:20;;;;;;;8.40;5.77;;;7.70;77.40;;;;;;5007772;28;20978;-76
2022/12/05 11:30:12;;;;;;;9.27;4.77;;;7.70;76.80;;;;;;5016167;28;20539;-75
2022/12/05 11:32:38;;;;;;;8.10;4.87;;;7.70;76.80;;;;;;5004110;28;20436;-76
2022/12/05 11:35:08;;;;;;;10.07;4.53;;;7.90;77.30;;;;;;5007030;28;20461;-76
2022/12/05 11:37:57;;;;;;;10.17;5.10;;;7.90;76.50;;;;;;5007883;28;20432;-76
2022/12/05 11:41:02;;;;;;;9.03;4.67;;;7.90;75.80;;;;;;5006559;28;20466;-76
2022/12/05 11:43:53;;;;;;;6.53;4.73;;;7.90;76.50;;;;;;4954724;29;20465;-75
2022/12/05 11:46:40;;;;;;;6.47;3.93;;;8.10;74.60;;;;;;5013670;28;20417;-76
2022/12/05 11:49:33;;;;;;;7.17;4.60;;;8.10;74.60;;;;;;5014974;28;20500;-75
2022/12/05 11:52:24;;;;;;;7.87;4.40;;;8.30;74.30;;;;;;5016085;28;20440;-74
2022/12/05 11:55:11;;;;;;;8.40;4.00;;;8.40;74.20;;;;;;5019224;28;20498;-75
2022/12/05 11:58:06;;;;;;;6.83;4.10;;;8.60;72.90;;;;;;5004913;28;20421;-75
2022/12/05 12:00:55;;;;;;;8.40;3.80;;;8.60;72.40;;;;;;5007417;28;20424;-74
2022/12/05 12:03:32;;;;;;;6.23;3.67;;;8.60;72.00;;;;;;5011341;28;20417;-75
2022/12/05 12:06:16;;;;;;;5.37;4.20;;;8.30;72.30;;;;;;5017231;28;20530;-75
2022/12/05 12:09:01;;;;;;;7.07;4.40;;;8.40;72.70;;;;;;5009220;28;20499;-74
2022/12/05 12:11:32;;;;;;;6.57;3.80;;;8.40;72.70;;;;;;5005922;28;20421;-74
2022/12/05 12:14:32;;;;;;;6.97;3.97;;;8.40;72.70;;;;;;4999738;28;20779;-75
2022/12/05 12:17:34;;;;;;;6.40;3.87;;;8.40;72.70;;;;;;5005364;28;20515;-77
2022/12/05 12:20:36;;;;;;;5.10;3.43;;;8.20;72.90;;;;;;5011464;28;20433;-75
2022/12/05 12:23:17;;;;;;;6.80;3.97;;;8.10;73.60;;;;;;5009771;28;20725;-76
2022/12/05 12:26:17;;;;;;;51.60;9.90;;;8.20;73.70;;;;;;5008212;28;20802;-76
2022/12/05 12:29:07;;;;;;;8.63;3.70;;;8.10;73.70;;;;;;5000260;28;20464;-76
2022/12/05 12:31:36;;;;;;;6.97;3.80;;;8.20;74.00;;;;;;5005400;28;20420;-74
2022/12/05 12:34:25;;;;;;;11.03;4.50;;;8.20;73.70;;;;;;5005191;28;20491;-75
2022/12/05 12:36:54;;;;;;;7.17;3.97;;;8.20;73.60;;;;;;4994645;28;20773;-74
2022/12/05 12:39:42;;;;;;;8.57;3.97;;;8.20;73.30;;;;;;5003255;28;20467;-74
2022/12/05 12:42:19;;;;;;;6.33;3.87;;;8.20;73.70;;;;;;5003542;28;20421;-74
2022/12/05 12:45:02;;;;;;;6.10;4.00;;;8.20;74.20;;;;;;5003610;28;20951;-76
2022/12/05 12:47:27;;;;;;;5.53;3.40;;;8.30;74.30;;;;;;5004566;28;20428;-75
2022/12/05 12:50:12;;;;;;;6.50;3.80;;;8.40;73.90;;;;;;5001777;28;20447;-76
2022/12/05 12:53:05;;;;;;;8.73;4.60;;;8.40;73.70;;;;;;5003270;28;20193;-75
2022/12/05 12:55:39;;;;;;;6.07;4.20;;;8.40;73.70;;;;;;5005023;28;20571;-74
2022/12/05 12:58:14;;;;;;;6.63;4.43;;;8.50;73.20;;;;;;4994528;28;20457;-74
2022/12/05 13:01:04;;;;;;;8.07;3.97;;;8.40;73.50;;;;;;4998919;28;20428;-75
2022/12/05 13:03:37;;;;;;;8.73;4.20;;;8.60;73.70;;;;;;5007453;28;20417;-75
2022/12/05 13:06:14;;;;;;;6.10;4.37;;;8.70;73.50;;;;;;5011275;28;20428;-74
2022/12/05 13:08:49;;;;;;;17.13;9.40;;;8.40;72.70;;;;;;5008187;28;20522;-75
2022/12/05 13:11:17;;;;;;;25.10;11.50;;;8.20;75.20;;;;;;4997498;28;20436;-74
2022/12/05 13:13:47;;;;;;;25.23;12.50;;;8.00;78.40;;;;;;5005282;28;20432;-74